createdAt,value
2023-05-21T00:00:45.376Z,1670.00
2023-05-21T00:01:45.332Z,1702.00
2023-05-21T00:02:45.387Z,1709.00
2023-05-21T00:03:45.495Z,1722.00
2023-05-21T00:04:45.323Z,1742.00
2023-05-21T00:05:45.363Z,1763.00
2023-05-21T00:06:45.310Z,1786.00
2023-05-21T00:07:45.304Z,1754.00
2023-05-21T00:08:45.297Z,1721.00
2023-05-21T00:09:45.305Z,1715.00
2023-05-21T00:10:45.288Z,1635.00
2023-05-21T00:11:45.279Z,1585.00
2023-05-21T00:12:45.275Z,1561.00
2023-05-21T00:13:45.273Z,1580.00
2023-05-21T00:14:45.246Z,1598.00
2023-05-21T00:15:45.272Z,1608.00
2023-05-21T00:16:45.343Z,1580.00
2023-05-21T00:17:45.271Z,1634.00
2023-05-21T00:18:45.279Z,1686.00
2023-05-21T00:19:45.235Z,1695.00
2023-05-21T00:20:45.209Z,1757.00
2023-05-21T00:21:45.217Z,1768.00
2023-05-21T00:22:45.188Z,1808.00
2023-05-21T00:23:45.189Z,1892.00
2023-05-21T00:24:45.189Z,1903.00
2023-05-21T00:25:45.183Z,1953.00
2023-05-21T00:26:45.168Z,1998.00
2023-05-21T00:27:45.179Z,2068.00
2023-05-21T00:28:45.201Z,2028.00
2023-05-21T00:29:45.165Z,1985.00
2023-05-21T00:30:45.140Z,1931.00
2023-05-21T00:31:45.199Z,1924.00
2023-05-21T00:32:45.154Z,1886.00
2023-05-21T00:33:45.125Z,1863.00
2023-05-21T00:34:45.134Z,1841.00
2023-05-21T00:35:45.121Z,1860.00
2023-05-21T00:36:45.106Z,1850.00
2023-05-21T00:37:45.086Z,1841.00
2023-05-21T00:38:45.077Z,1872.00
2023-05-21T00:39:45.067Z,1946.00
2023-05-21T00:40:45.102Z,1905.00
2023-05-21T00:41:45.069Z,1935.00
2023-05-21T00:42:45.052Z,1982.00
2023-05-21T00:43:45.049Z,1961.00
2023-05-21T00:44:45.039Z,1998.00
2023-05-21T00:45:45.092Z,2039.00
2023-05-21T00:46:45.040Z,2092.00
2023-05-21T00:47:45.105Z,2084.00
2023-05-21T00:48:45.046Z,2085.00
2023-05-21T00:49:45.027Z,2133.00
2023-05-21T00:50:45.024Z,2126.00
2023-05-21T00:51:45.013Z,2114.00
2023-05-21T00:52:44.996Z,2145.00
2023-05-21T00:53:44.977Z,2152.00
2023-05-21T00:54:44.974Z,2143.00
2023-05-21T00:55:44.977Z,2174.00
2023-05-21T00:56:44.970Z,2157.00
2023-05-21T00:57:44.951Z,2135.00
2023-05-21T00:58:44.960Z,2096.00
2023-05-21T00:59:44.952Z,2093.00
2023-05-21T01:00:44.955Z,2123.00
2023-05-21T01:01:45.086Z,2141.00
2023-05-21T01:02:45.001Z,2132.00
2023-05-21T01:03:44.936Z,2168.00
2023-05-21T01:04:44.909Z,2190.00
2023-05-21T01:05:44.897Z,2155.00
2023-05-21T01:06:44.901Z,2152.00
2023-05-21T01:07:44.874Z,2175.00
2023-05-21T01:08:44.895Z,2202.00
2023-05-21T01:09:45.002Z,2223.00
2023-05-21T01:10:44.874Z,2280.00
2023-05-21T01:11:44.895Z,2275.00
2023-05-21T01:12:44.843Z,2310.00
2023-05-21T01:13:44.851Z,2309.00
2023-05-21T01:14:44.849Z,2310.00
2023-05-21T01:15:44.826Z,2299.00
2023-05-21T01:16:44.870Z,2303.00
2023-05-21T01:17:44.849Z,2315.00
2023-05-21T01:18:44.943Z,2367.00
2023-05-21T01:19:44.923Z,2389.00
2023-05-21T01:20:44.791Z,2391.00
2023-05-21T01:21:44.785Z,2404.00
2023-05-21T01:22:44.774Z,2416.00
2023-05-21T01:23:44.770Z,2397.00
2023-05-21T01:24:44.779Z,2378.00
2023-05-21T01:25:44.789Z,2320.00
2023-05-21T01:26:44.757Z,2270.00
2023-05-21T01:27:44.756Z,2255.00
2023-05-21T01:28:44.753Z,2225.00
2023-05-21T01:29:44.784Z,2210.00
2023-05-21T01:30:44.716Z,2165.00
2023-05-21T01:31:44.730Z,2194.00
2023-05-21T01:32:44.804Z,2250.00
2023-05-21T01:33:44.756Z,2243.00
2023-05-21T01:34:44.692Z,2241.00
2023-05-21T01:35:44.731Z,2232.00
2023-05-21T01:36:44.732Z,2242.00
2023-05-21T01:37:44.788Z,2305.00
2023-05-21T01:38:44.838Z,2351.00
2023-05-21T01:39:44.926Z,2359.00
2023-05-21T01:40:44.928Z,2415.00
2023-05-21T01:41:44.958Z,2447.00
2023-05-21T01:42:44.897Z,2480.00
2023-05-21T01:43:44.903Z,2476.00
2023-05-21T01:44:44.904Z,2399.00
2023-05-21T01:45:44.891Z,2324.00
2023-05-21T01:46:44.974Z,2298.00
2023-05-21T01:47:44.946Z,2258.00
2023-05-21T01:48:44.868Z,2220.00
2023-05-21T01:49:44.874Z,2223.00
2023-05-21T01:50:44.876Z,2239.00
2023-05-21T01:51:44.904Z,2208.00
2023-05-21T01:52:44.854Z,2209.00
2023-05-21T01:53:44.862Z,2196.00
2023-05-21T01:54:44.858Z,2260.00
2023-05-21T01:55:44.872Z,2298.00
2023-05-21T01:56:44.862Z,2298.00
2023-05-21T01:57:44.857Z,2326.00
2023-05-21T01:58:44.836Z,2354.00
2023-05-21T01:59:44.929Z,2410.00
2023-05-21T02:00:44.855Z,2431.00
2023-05-21T02:01:44.888Z,2446.00
2023-05-21T02:02:44.866Z,2435.00
2023-05-21T02:03:44.920Z,2499.00
2023-05-21T02:04:44.838Z,2484.00
2023-05-21T02:05:44.850Z,2487.00
2023-05-21T02:06:44.838Z,2487.00
2023-05-21T02:07:44.838Z,2494.00
2023-05-21T02:08:44.841Z,2555.00
2023-05-21T02:09:44.863Z,2532.00
2023-05-21T02:10:44.854Z,2512.00
2023-05-21T02:11:44.848Z,2480.00
2023-05-21T02:12:44.878Z,2466.00
2023-05-21T02:13:44.840Z,2440.00
2023-05-21T02:14:44.863Z,2394.00
2023-05-21T02:15:44.877Z,2392.00
2023-05-21T02:16:44.971Z,2399.00
2023-05-21T02:17:45.033Z,2417.00
2023-05-21T02:18:45.021Z,2434.00
2023-05-21T02:19:44.979Z,2433.00
2023-05-21T02:20:44.981Z,2445.00
2023-05-21T02:21:44.987Z,2453.00
2023-05-21T02:22:44.993Z,2466.00
2023-05-21T02:23:44.992Z,2495.00
2023-05-21T02:24:45.004Z,2489.00
2023-05-21T02:25:44.985Z,2527.00
2023-05-21T02:26:44.989Z,2530.00
2023-05-21T02:27:44.995Z,2548.00
2023-05-21T02:28:45.006Z,2537.00
2023-05-21T02:29:45.020Z,2577.00
2023-05-21T02:30:45.038Z,2565.00
2023-05-21T02:31:45.045Z,2587.00
2023-05-21T02:32:45.202Z,2615.00
2023-05-21T02:33:45.072Z,2610.00
2023-05-21T02:34:45.056Z,2593.00
2023-05-21T02:35:45.100Z,2605.00
2023-05-21T02:36:45.161Z,2603.00
2023-05-21T02:37:45.225Z,2615.00
2023-05-21T02:38:45.242Z,2612.00
2023-05-21T02:39:45.255Z,2613.00
2023-05-21T02:40:45.267Z,2609.00
2023-05-21T02:41:45.268Z,2580.00
2023-05-21T02:42:45.271Z,2600.00
2023-05-21T02:43:45.269Z,2604.00
2023-05-21T02:44:45.283Z,2613.00
2023-05-21T02:45:45.326Z,2619.00
2023-05-21T02:46:45.284Z,2636.00
2023-05-21T02:47:45.335Z,2630.00
2023-05-21T02:48:45.285Z,2623.00
2023-05-21T02:49:45.288Z,2615.00
2023-05-21T02:50:45.293Z,2620.00
2023-05-21T02:51:45.313Z,2583.00
2023-05-21T02:52:45.303Z,2557.00
2023-05-21T02:53:45.311Z,2550.00
2023-05-21T02:54:45.340Z,2507.00
2023-05-21T02:55:45.341Z,2528.00
2023-05-21T02:56:45.333Z,2571.00
2023-05-21T02:57:45.347Z,2551.00
2023-05-21T02:58:45.347Z,2592.00
2023-05-21T02:59:45.370Z,2611.00
2023-05-21T03:00:45.829Z,2582.00
2023-05-21T03:01:45.486Z,2553.00
2023-05-21T03:02:45.462Z,2529.00
2023-05-21T03:03:45.492Z,2531.00
2023-05-21T03:04:45.420Z,2533.00
2023-05-21T03:05:45.429Z,2526.00
2023-05-21T03:06:45.420Z,2542.00
2023-05-21T03:07:45.459Z,2515.00
2023-05-21T03:08:45.458Z,2524.00
2023-05-21T03:09:45.467Z,2522.00
2023-05-21T03:10:45.476Z,2507.00
2023-05-21T03:11:45.480Z,2516.00
2023-05-21T03:12:45.483Z,2557.00
2023-05-21T03:13:45.552Z,2536.00
2023-05-21T03:14:45.496Z,2526.00
2023-05-21T03:15:45.534Z,2520.00
2023-05-21T03:16:45.574Z,2526.00
2023-05-21T03:17:45.591Z,2515.00
2023-05-21T03:18:45.586Z,2479.00
2023-05-21T03:19:45.565Z,2490.00
2023-05-21T03:20:45.591Z,2478.00
2023-05-21T03:21:45.585Z,2536.00
2023-05-21T03:22:45.616Z,2522.00
2023-05-21T03:23:45.615Z,2524.00
2023-05-21T03:24:45.605Z,2562.00
2023-05-21T03:25:45.612Z,2589.00
2023-05-21T03:26:45.618Z,2549.00
2023-05-21T03:27:45.640Z,2544.00
2023-05-21T03:28:45.630Z,2569.00
2023-05-21T03:29:45.666Z,2630.00
2023-05-21T03:30:45.679Z,2694.00
2023-05-21T03:31:45.696Z,2727.00
2023-05-21T03:32:45.723Z,2748.00
2023-05-21T03:33:45.702Z,2768.00
2023-05-21T03:34:45.698Z,2778.00
2023-05-21T03:35:45.732Z,2792.00
2023-05-21T03:36:45.715Z,2762.00
2023-05-21T03:37:45.730Z,2742.00
2023-05-21T03:38:45.749Z,2711.00
2023-05-21T03:39:45.739Z,2701.00
2023-05-21T03:40:45.764Z,2682.00
2023-05-21T03:41:45.760Z,2676.00
2023-05-21T03:42:45.808Z,2680.00
2023-05-21T03:43:45.764Z,2625.00
2023-05-21T03:44:45.793Z,2666.00
2023-05-21T03:45:45.820Z,2697.00
2023-05-21T03:46:45.786Z,2721.00
2023-05-21T03:47:45.870Z,2717.00
2023-05-21T03:48:45.824Z,2707.00
2023-05-21T03:49:45.842Z,2710.00
2023-05-21T03:50:45.840Z,2704.00
2023-05-21T03:51:45.828Z,2713.00
2023-05-21T03:52:45.845Z,2687.00
2023-05-21T03:53:45.866Z,2681.00
2023-05-21T03:54:45.857Z,2678.00
2023-05-21T03:55:45.889Z,2689.00
2023-05-21T03:56:45.898Z,2686.00
2023-05-21T03:57:45.907Z,2686.00
2023-05-21T03:58:45.918Z,2658.00
2023-05-21T03:59:45.921Z,2676.00
2023-05-21T04:00:45.953Z,2684.00
2023-05-21T04:01:45.941Z,2687.00
2023-05-21T04:02:46.051Z,2676.00
2023-05-21T04:03:46.007Z,2693.00
2023-05-21T04:04:46.156Z,2674.00
2023-05-21T04:05:46.012Z,2697.00
2023-05-21T04:06:45.987Z,2668.00
2023-05-21T04:07:45.998Z,2649.00
2023-05-21T04:08:46.020Z,2643.00
2023-05-21T04:09:46.035Z,2631.00
2023-05-21T04:10:46.033Z,2642.00
2023-05-21T04:11:46.040Z,2626.00
2023-05-21T04:12:46.067Z,2621.00
2023-05-21T04:13:46.080Z,2617.00
2023-05-21T04:14:46.090Z,2643.00
2023-05-21T04:15:46.142Z,2627.00
2023-05-21T04:16:46.092Z,2638.00
2023-05-21T04:17:46.150Z,2644.00
2023-05-21T04:18:46.204Z,2680.00
2023-05-21T04:19:46.132Z,2678.00
2023-05-21T04:20:46.151Z,2703.00
2023-05-21T04:21:46.157Z,2699.00
2023-05-21T04:22:46.160Z,2712.00
2023-05-21T04:23:46.237Z,2741.00
2023-05-21T04:24:46.155Z,2763.00
2023-05-21T04:25:46.187Z,2760.00
2023-05-21T04:26:46.197Z,2776.00
2023-05-21T04:27:46.189Z,2767.00
2023-05-21T04:28:46.194Z,2753.00
2023-05-21T04:29:46.238Z,2732.00
2023-05-21T04:30:46.238Z,2744.00
2023-05-21T04:31:46.350Z,2742.00
2023-05-21T04:32:46.297Z,2741.00
2023-05-21T04:33:46.339Z,2719.00
2023-05-21T04:34:46.294Z,2749.00
2023-05-21T04:35:46.263Z,2785.00
2023-05-21T04:36:46.292Z,2790.00
2023-05-21T04:37:46.276Z,2803.00
2023-05-21T04:38:46.302Z,2776.00
2023-05-21T04:39:46.278Z,2749.00
2023-05-21T04:40:46.300Z,2739.00
2023-05-21T04:41:46.301Z,2743.00
2023-05-21T04:42:46.320Z,2736.00
2023-05-21T04:43:46.305Z,2700.00
2023-05-21T04:44:46.331Z,2691.00
2023-05-21T04:45:46.336Z,2657.00
2023-05-21T04:46:46.418Z,2668.00
2023-05-21T04:47:46.380Z,2636.00
2023-05-21T04:48:46.349Z,2638.00
2023-05-21T04:49:46.349Z,2646.00
2023-05-21T04:50:46.383Z,2654.00
2023-05-21T04:51:46.343Z,2616.00
2023-05-21T04:52:46.371Z,2595.00
2023-05-21T04:53:46.349Z,2581.00
2023-05-21T04:54:46.350Z,2580.00
2023-05-21T04:55:46.354Z,2567.00
2023-05-21T04:56:46.377Z,2573.00
2023-05-21T04:57:46.368Z,2528.00
2023-05-21T04:58:46.372Z,2524.00
2023-05-21T04:59:46.368Z,2508.00
2023-05-21T05:00:46.417Z,2568.00
2023-05-21T05:01:46.365Z,2536.00
2023-05-21T05:02:46.458Z,2556.00
2023-05-21T05:03:46.449Z,2565.00
2023-05-21T05:04:46.350Z,2569.00
2023-05-21T05:05:46.367Z,2582.00
2023-05-21T05:06:46.354Z,2575.00
2023-05-21T05:07:46.345Z,2546.00
2023-05-21T05:08:46.367Z,2565.00
2023-05-21T05:09:46.353Z,2585.00
2023-05-21T05:10:46.382Z,2596.00
2023-05-21T05:11:46.428Z,2595.00
2023-05-21T05:12:46.452Z,2632.00
2023-05-21T05:13:46.492Z,2627.00
2023-05-21T05:14:46.497Z,2635.00
2023-05-21T05:16:46.528Z,2703.00
2023-05-21T05:17:46.545Z,2731.00
2023-05-21T05:18:46.572Z,2742.00
2023-05-21T05:19:46.526Z,2775.00
2023-05-21T05:20:46.548Z,2809.00
2023-05-21T05:21:46.574Z,2792.00
2023-05-21T05:22:46.590Z,2816.00
2023-05-21T05:23:46.621Z,2820.00
2023-05-21T05:24:46.663Z,2848.00
2023-05-21T05:25:46.724Z,2815.00
2023-05-21T05:26:46.763Z,2800.00
2023-05-21T05:27:46.829Z,2790.00
2023-05-21T05:28:46.871Z,2818.00
2023-05-21T05:29:46.938Z,2821.00
2023-05-21T05:30:47.098Z,2840.00
2023-05-21T05:31:47.060Z,2856.00
2023-05-21T05:32:47.261Z,2856.00
2023-05-21T05:33:47.200Z,2889.00
2023-05-21T05:34:47.256Z,2903.00
2023-05-21T05:35:47.332Z,2937.00
2023-05-21T05:36:47.380Z,2950.00
2023-05-21T05:37:47.425Z,2950.00
2023-05-21T05:38:47.503Z,2990.00
2023-05-21T05:39:47.569Z,3036.00
2023-05-21T05:40:47.625Z,3060.00
2023-05-21T05:41:47.680Z,3091.00
2023-05-21T05:42:47.758Z,3138.00
2023-05-21T05:43:47.792Z,3153.00
2023-05-21T05:44:47.858Z,3144.00
2023-05-21T05:45:47.938Z,3144.00
2023-05-21T05:46:48.006Z,3162.00
2023-05-21T05:47:48.074Z,3171.00
2023-05-21T05:48:48.066Z,3173.00
2023-05-21T05:49:48.127Z,3190.00
2023-05-21T05:50:48.178Z,3215.00
2023-05-21T05:51:48.221Z,3217.00
2023-05-21T05:52:48.263Z,3252.00
2023-05-21T05:53:48.309Z,3285.00
2023-05-21T05:54:48.385Z,3296.00
2023-05-21T05:55:48.424Z,3306.00
2023-05-21T05:56:48.469Z,3334.00
2023-05-21T05:57:48.511Z,3323.00
2023-05-21T05:58:48.555Z,3348.00
2023-05-21T05:59:48.589Z,3274.00
2023-05-21T06:00:48.636Z,3272.00
2023-05-21T06:01:48.677Z,3282.00
2023-05-21T06:02:48.881Z,3305.00
2023-05-21T06:03:48.888Z,3331.00
2023-05-21T06:04:48.810Z,3317.00
2023-05-21T06:05:48.897Z,3332.00
2023-05-21T06:06:48.910Z,3334.00
2023-05-21T06:07:48.935Z,3342.00
2023-05-21T06:08:48.957Z,3325.00
2023-05-21T06:09:49.006Z,3304.00
2023-05-21T06:10:49.046Z,3350.00
2023-05-21T06:11:49.087Z,3331.00
2023-05-21T06:12:49.145Z,3344.00
2023-05-21T06:13:49.178Z,3352.00
2023-05-21T06:14:49.228Z,3341.00
2023-05-21T06:15:49.289Z,3330.00
2023-05-21T06:16:49.298Z,3320.00
2023-05-21T06:17:49.351Z,3331.00
2023-05-21T06:18:49.419Z,3334.00
2023-05-21T06:19:49.396Z,3323.00
2023-05-21T06:20:49.437Z,3368.00
2023-05-21T06:21:49.463Z,3328.00
2023-05-21T06:22:49.511Z,3397.00
2023-05-21T06:23:49.545Z,3353.00
2023-05-21T06:24:49.581Z,3360.00
2023-05-21T06:25:49.630Z,3381.00
2023-05-21T06:26:49.655Z,3318.00
2023-05-21T06:27:49.676Z,3317.00
2023-05-21T06:28:49.739Z,3334.00
2023-05-21T06:29:49.733Z,3364.00
2023-05-21T06:30:49.771Z,3351.00
2023-05-21T06:31:49.792Z,3294.00
2023-05-21T06:32:49.879Z,3306.00
2023-05-21T06:33:49.902Z,3346.00
2023-05-21T06:34:49.871Z,3334.00
2023-05-21T06:35:49.897Z,3369.00
2023-05-21T06:36:49.933Z,3334.00
2023-05-21T06:37:49.948Z,3306.00
2023-05-21T06:38:49.981Z,3349.00
2023-05-21T06:39:50.016Z,3328.00
2023-05-21T06:40:50.042Z,3350.00
2023-05-21T06:41:50.030Z,3361.00
2023-05-21T06:42:50.032Z,3340.00
2023-05-21T06:43:50.053Z,3343.00
2023-05-21T06:44:50.076Z,3346.00
2023-05-21T06:45:50.118Z,3317.00
2023-05-21T06:46:50.099Z,3310.00
2023-05-21T06:47:50.167Z,3275.00
2023-05-21T06:48:50.146Z,3320.00
2023-05-21T06:49:50.174Z,3320.00
2023-05-21T06:50:50.179Z,3314.00
2023-05-21T06:51:50.195Z,3314.00
2023-05-21T06:52:50.202Z,3300.00
2023-05-21T06:53:50.223Z,3304.00
2023-05-21T06:54:50.241Z,3307.00
2023-05-21T06:55:50.241Z,3313.00
2023-05-21T06:56:50.260Z,3339.00
2023-05-21T06:57:50.284Z,3335.00
2023-05-21T06:58:50.300Z,3319.00
2023-05-21T06:59:50.313Z,3292.00
2023-05-21T07:00:50.358Z,3291.00
2023-05-21T07:01:50.336Z,3253.00
2023-05-21T07:02:50.463Z,3269.00
2023-05-21T07:03:50.359Z,3276.00
2023-05-21T07:04:50.410Z,3286.00
2023-05-21T07:05:50.425Z,3279.00
2023-05-21T07:06:50.445Z,3286.00
2023-05-21T07:07:50.499Z,3291.00
2023-05-21T07:08:50.562Z,3292.00
2023-05-21T07:09:50.546Z,3255.00
2023-05-21T07:10:50.597Z,3267.00
2023-05-21T07:11:50.651Z,3331.00
2023-05-21T07:12:50.695Z,3289.00
2023-05-21T07:13:50.733Z,3333.00
2023-05-21T07:14:50.773Z,3315.00
2023-05-21T07:15:50.809Z,3320.00
2023-05-21T07:16:50.911Z,3299.00
2023-05-21T07:17:50.929Z,3302.00
2023-05-21T07:18:50.949Z,3299.00
2023-05-21T07:19:50.929Z,3328.00
2023-05-21T07:20:50.960Z,3292.00
2023-05-21T07:21:50.933Z,3303.00
2023-05-21T07:22:50.952Z,3324.00
2023-05-21T07:23:50.958Z,3281.00
2023-05-21T07:24:50.985Z,3300.00
2023-05-21T07:25:51.000Z,3365.00
2023-05-21T07:26:51.010Z,3333.00
2023-05-21T07:27:51.020Z,3300.00
2023-05-21T07:28:51.031Z,3212.00
2023-05-21T07:29:51.041Z,3299.00
2023-05-21T07:30:51.090Z,3289.00
2023-05-21T07:31:51.064Z,3242.00
2023-05-21T07:32:51.205Z,3249.00
2023-05-21T07:33:51.208Z,3236.00
2023-05-21T07:34:54.111Z,3313.00
2023-05-21T07:35:51.263Z,3268.00
2023-05-21T07:36:51.260Z,3282.00
2023-05-21T07:37:51.288Z,3281.00
2023-05-21T07:38:51.252Z,3295.00
2023-05-21T07:39:51.236Z,3281.00
2023-05-21T07:40:51.237Z,3266.00
2023-05-21T07:41:51.217Z,3271.00
2023-05-21T07:42:51.224Z,3226.00
2023-05-21T07:43:51.210Z,3254.00
2023-05-21T07:44:51.192Z,3271.00
2023-05-21T07:45:51.204Z,3272.00
2023-05-21T07:46:51.196Z,3292.00
2023-05-21T07:47:51.206Z,3262.00
2023-05-21T07:48:51.168Z,3263.00
2023-05-21T07:49:51.181Z,3266.00
2023-05-21T07:50:51.173Z,3284.00
2023-05-21T07:51:51.169Z,3242.00
2023-05-21T07:52:51.164Z,3284.00
2023-05-21T07:53:51.866Z,3253.00
2023-05-21T07:54:51.130Z,3243.00
2023-05-21T07:55:51.126Z,3255.00
2023-05-21T07:56:51.120Z,3255.00
2023-05-21T07:57:51.116Z,3230.00
2023-05-21T07:58:51.144Z,3222.00
2023-05-21T07:59:51.143Z,3248.00
2023-05-21T08:00:51.133Z,3201.00
2023-05-21T08:01:51.091Z,3153.00
2023-05-21T08:02:51.130Z,3161.00
2023-05-21T08:03:51.259Z,3181.00
2023-05-21T08:04:51.113Z,3166.00
2023-05-21T08:05:51.131Z,3161.00
2023-05-21T08:06:51.071Z,3150.00
2023-05-21T08:07:51.055Z,3108.00
2023-05-21T08:08:51.059Z,3043.00
2023-05-21T08:09:51.049Z,3046.00
2023-05-21T08:10:51.036Z,3008.00
2023-05-21T08:11:51.026Z,3003.00
2023-05-21T08:12:51.054Z,2989.00
2023-05-21T08:13:51.035Z,2981.00
2023-05-21T08:14:51.072Z,2973.00
2023-05-21T08:15:52.845Z,2976.00
2023-05-21T08:16:51.169Z,2961.00
2023-05-21T08:17:51.255Z,2943.00
2023-05-21T08:18:51.330Z,2992.00
2023-05-21T08:19:51.292Z,2981.00
2023-05-21T08:20:51.357Z,2948.00
2023-05-21T08:21:52.844Z,2945.00
2023-05-21T08:22:51.447Z,2914.00
2023-05-21T08:23:51.480Z,2908.00
2023-05-21T08:24:51.555Z,2877.00
2023-05-21T08:25:51.617Z,2859.00
2023-05-21T08:26:51.665Z,2834.00
2023-05-21T08:27:52.515Z,2806.00
2023-05-21T08:28:51.802Z,2792.00
2023-05-21T08:29:51.854Z,2793.00
2023-05-21T08:30:51.934Z,2800.00
2023-05-21T08:31:52.010Z,2783.00
2023-05-21T08:32:52.135Z,2775.00
2023-05-21T08:33:52.096Z,2766.00
2023-05-21T08:34:52.154Z,2747.00
2023-05-21T08:35:52.221Z,2713.00
2023-05-21T08:36:52.369Z,2719.00
2023-05-21T08:37:52.333Z,2732.00
2023-05-21T08:38:52.387Z,2708.00
2023-05-21T08:39:52.487Z,2707.00
2023-05-21T08:40:52.524Z,2694.00
2023-05-21T08:41:52.569Z,2668.00
2023-05-21T08:42:52.652Z,2672.00
2023-05-21T08:43:54.843Z,2683.00
2023-05-21T08:44:52.734Z,2652.00
2023-05-21T08:45:52.799Z,2646.00
2023-05-21T08:46:52.841Z,2607.00
2023-05-21T08:47:52.897Z,2604.00
2023-05-21T08:48:52.935Z,2593.00
2023-05-21T08:49:52.986Z,2591.00
2023-05-21T08:50:53.059Z,2570.00
2023-05-21T08:51:53.087Z,2551.00
2023-05-21T08:52:53.158Z,2527.00
2023-05-21T08:53:53.203Z,2527.00
2023-05-21T08:54:53.238Z,2520.00
2023-05-21T08:55:53.288Z,2501.00
2023-05-21T08:56:53.334Z,2443.00
2023-05-21T08:57:53.362Z,2443.00
2023-05-21T08:58:53.384Z,2475.00
2023-05-21T08:59:53.443Z,2437.00
2023-05-21T09:00:53.507Z,2394.00
2023-05-21T09:01:53.624Z,2392.00
2023-05-21T09:02:53.582Z,2377.00
2023-05-21T09:03:57.114Z,2350.00
2023-05-21T09:04:54.604Z,2350.00
2023-05-21T09:05:53.585Z,2344.00
2023-05-21T09:06:53.586Z,2348.00
2023-05-21T09:07:53.568Z,2341.00
2023-05-21T09:08:53.549Z,2345.00
2023-05-21T09:09:53.535Z,2299.00
2023-05-21T09:10:53.550Z,2278.00
2023-05-21T09:11:53.560Z,2263.00
2023-05-21T09:12:53.524Z,2254.00
2023-05-21T09:13:53.513Z,2213.00
2023-05-21T09:14:53.542Z,2152.00
2023-05-21T09:15:53.502Z,2158.00
2023-05-21T09:16:53.537Z,2180.00
2023-05-21T09:17:53.521Z,2170.00
2023-05-21T09:18:53.542Z,2108.00
2023-05-21T09:19:53.525Z,2107.00
2023-05-21T09:20:53.547Z,2076.00
2023-05-21T09:21:53.575Z,2060.00
2023-05-21T09:22:53.611Z,2082.00
2023-05-21T09:23:53.628Z,2053.00
2023-05-21T09:24:53.670Z,2081.00
2023-05-21T09:25:53.706Z,1999.00
2023-05-21T09:26:53.695Z,1992.00
2023-05-21T09:27:53.728Z,1988.00
2023-05-21T09:28:53.762Z,1961.00
2023-05-21T09:29:53.782Z,1945.00
2023-05-21T09:30:53.784Z,1904.00
2023-05-21T09:31:53.827Z,1887.00
2023-05-21T09:32:53.882Z,1894.00
2023-05-21T09:33:53.847Z,1840.00
2023-05-21T09:34:53.868Z,1872.00
2023-05-21T09:35:53.877Z,1846.00
2023-05-21T09:36:53.875Z,1786.00
2023-05-21T09:37:53.916Z,1756.00
2023-05-21T09:38:53.903Z,1746.00
2023-05-21T09:39:53.925Z,1703.00
2023-05-21T09:40:53.933Z,1674.00
2023-05-21T09:41:53.946Z,1642.00
2023-05-21T09:42:53.975Z,1631.00
2023-05-21T09:43:53.987Z,1664.00
2023-05-21T09:44:54.047Z,1624.00
2023-05-21T09:45:54.091Z,1599.00
2023-05-21T09:46:54.091Z,1618.00
2023-05-21T09:47:54.034Z,1624.00
2023-05-21T09:48:54.043Z,1581.00
2023-05-21T09:49:54.039Z,1502.00
2023-05-21T09:50:54.073Z,1500.00
2023-05-21T09:51:54.071Z,1462.00
2023-05-21T09:52:54.059Z,1505.00
2023-05-21T09:53:54.082Z,1478.00
2023-05-21T09:54:54.114Z,1462.00
2023-05-21T09:55:54.118Z,1487.00
2023-05-21T09:56:54.256Z,1482.00
2023-05-21T09:57:54.121Z,1489.00
2023-05-21T09:58:54.141Z,1486.00
2023-05-21T09:59:54.186Z,1451.00
2023-05-21T10:00:54.153Z,1443.00
2023-05-21T10:01:54.184Z,1480.00
2023-05-21T10:02:54.210Z,1482.00
2023-05-21T10:03:54.172Z,1455.00
2023-05-21T10:04:54.212Z,1436.00
2023-05-21T10:05:54.161Z,1435.00
2023-05-21T10:06:54.168Z,1460.00
2023-05-21T10:07:54.176Z,1419.00
2023-05-21T10:08:54.166Z,1446.00
2023-05-21T10:09:54.190Z,1498.00
2023-05-21T10:10:54.193Z,1449.00
2023-05-21T10:11:54.173Z,1434.00
2023-05-21T10:12:54.182Z,1430.00
2023-05-21T10:13:54.192Z,1403.00
2023-05-21T10:14:54.179Z,1436.00
2023-05-21T10:15:54.209Z,1403.00
2023-05-21T10:16:54.212Z,1440.00
2023-05-21T10:17:54.290Z,1467.00
2023-05-21T10:18:54.232Z,1445.00
2023-05-21T10:19:54.163Z,1459.00
2023-05-21T10:20:54.206Z,1457.00
2023-05-21T10:21:54.175Z,1497.00
2023-05-21T10:22:54.155Z,1487.00
2023-05-21T10:23:54.173Z,1444.00
2023-05-21T10:24:54.167Z,1467.00
2023-05-21T10:25:54.167Z,1452.00
2023-05-21T10:26:54.165Z,1476.00
2023-05-21T10:27:54.162Z,1453.00
2023-05-21T10:28:54.158Z,1449.00
2023-05-21T10:29:54.165Z,1416.00
2023-05-21T10:30:54.158Z,1440.00
2023-05-21T10:31:54.196Z,1441.00
2023-05-21T10:32:54.289Z,1415.00
2023-05-21T10:33:54.167Z,1420.00
2023-05-21T10:34:54.165Z,1422.00
2023-05-21T10:35:54.171Z,1351.00
2023-05-21T10:36:54.140Z,1353.00
2023-05-21T10:37:54.142Z,1241.00
2023-05-21T10:38:54.137Z,1220.00
2023-05-21T10:39:54.138Z,1213.00
2023-05-21T10:40:54.153Z,1226.00
2023-05-21T10:41:55.024Z,1242.00
2023-05-21T10:42:54.147Z,1277.00
2023-05-21T10:43:54.130Z,1284.00
2023-05-21T10:44:54.126Z,1247.00
2023-05-21T10:45:54.219Z,1224.00
2023-05-21T10:46:54.150Z,1244.00
2023-05-21T10:47:54.576Z,1215.00
2023-05-21T10:48:54.145Z,1189.00
2023-05-21T10:49:54.152Z,1197.00
2023-05-21T10:50:54.170Z,1191.00
2023-05-21T10:51:54.163Z,1201.00
2023-05-21T10:52:54.138Z,1137.00
2023-05-21T10:53:54.157Z,1134.00
2023-05-21T10:54:54.143Z,1153.00
2023-05-21T10:55:54.158Z,1137.00
2023-05-21T10:56:54.264Z,1111.00
2023-05-21T10:57:54.157Z,1114.00
2023-05-21T10:58:54.152Z,1147.00
2023-05-21T10:59:54.155Z,1172.00
2023-05-21T11:00:54.191Z,1155.00
2023-05-21T11:01:54.188Z,1077.00
2023-05-21T11:02:54.209Z,1085.00
2023-05-21T11:03:54.231Z,1010.00
2023-05-21T11:04:54.188Z,1051.00
2023-05-21T11:05:54.211Z,971.00
2023-05-21T11:06:54.204Z,982.00
2023-05-21T11:07:54.210Z,1002.00
2023-05-21T11:08:55.609Z,1031.00
2023-05-21T11:09:54.240Z,1054.00
2023-05-21T11:10:54.272Z,1040.00
2023-05-21T11:11:54.236Z,1013.00
2023-05-21T11:12:54.247Z,946.00
2023-05-21T11:13:54.276Z,988.00
2023-05-21T11:14:54.266Z,950.00
2023-05-21T11:15:54.290Z,924.00
2023-05-21T11:16:54.357Z,913.00
2023-05-21T11:17:54.345Z,965.00
2023-05-21T11:18:54.340Z,973.00
2023-05-21T11:19:54.360Z,985.00
2023-05-21T11:20:54.351Z,983.00
2023-05-21T11:21:54.365Z,974.00
2023-05-21T11:22:54.330Z,911.00
2023-05-21T11:23:54.335Z,888.00
2023-05-21T11:24:54.327Z,871.00
2023-05-21T11:25:54.328Z,897.00
2023-05-21T11:26:54.324Z,815.00
2023-05-21T11:27:54.305Z,825.00
2023-05-21T11:28:54.298Z,816.00
2023-05-21T11:29:54.283Z,804.00
2023-05-21T11:30:54.344Z,831.00
2023-05-21T11:31:54.290Z,822.00
2023-05-21T11:32:54.352Z,744.00
2023-05-21T11:33:54.263Z,778.00
2023-05-21T11:34:54.250Z,813.00
2023-05-21T11:35:54.269Z,794.00
2023-05-21T11:36:54.284Z,787.00
2023-05-21T11:37:54.254Z,747.00
2023-05-21T11:38:54.216Z,775.00
2023-05-21T11:39:54.212Z,775.00
2023-05-21T11:40:54.225Z,771.00
2023-05-21T11:41:54.219Z,677.00
2023-05-21T11:42:54.229Z,716.00
2023-05-21T11:43:54.210Z,675.00
2023-05-21T11:44:54.199Z,696.00
2023-05-21T11:45:54.177Z,677.00
2023-05-21T11:46:54.320Z,667.00
2023-05-21T11:47:54.213Z,645.00
2023-05-21T11:48:54.168Z,642.00
2023-05-21T11:49:54.160Z,654.00
2023-05-21T11:50:54.175Z,644.00
2023-05-21T11:51:54.140Z,636.00
2023-05-21T11:52:54.165Z,676.00
2023-05-21T11:53:54.170Z,692.00
2023-05-21T11:54:54.192Z,715.00
2023-05-21T11:55:54.199Z,753.00
2023-05-21T11:56:54.212Z,735.00
2023-05-21T11:57:54.237Z,670.00
2023-05-21T11:58:54.248Z,662.00
2023-05-21T11:59:54.271Z,657.00
2023-05-21T12:00:54.292Z,644.00
2023-05-21T12:01:54.296Z,646.00
2023-05-21T12:02:54.403Z,712.00
2023-05-21T12:03:54.380Z,691.00
2023-05-21T12:04:54.348Z,642.00
2023-05-21T12:05:54.425Z,653.00
2023-05-21T12:06:54.380Z,647.00
2023-05-21T12:07:54.374Z,628.00
2023-05-21T12:08:54.380Z,632.00